Time;durP1;ratioP1;P1;durP2;ratioP2;P2;SDS_P1;SDS_P2;PMS_P1;PMS_P2;Temp;Humidity;BMP_temperature;BMP_pressure;BME280_temperature;BME280_humidity;BME280_pressure;Samples;Min_cycle;Max_cycle;Signal;HPM_P1;HPM_P2
2023/05/03 00:00:30;;;;;;;8.40;7.60;;;;;;;9.54;100.00;97019.03;4998063;28;101760;-63
2023/05/03 00:02:57;;;;;;;8.47;7.67;;;;;;;9.46;100.00;97024.66;5005311;28;105043;-63
2023/05/03 00:05:26;;;;;;;9.53;7.97;;;;;;;9.46;100.00;97022.00;4999254;28;101882;-62
2023/05/03 00:07:53;;;;;;;8.43;7.73;;;;;;;9.38;100.00;97025.00;5005667;28;105417;-62
2023/05/03 00:10:20;;;;;;;8.93;8.13;;;;;;;9.41;100.00;97016.56;5001486;28;104977;-62
2023/05/03 00:12:48;;;;;;;8.30;7.60;;;;;;;9.35;100.00;97014.84;5008128;28;101970;-62
2023/05/03 00:15:28;;;;;;;7.80;7.10;;;;;;;9.43;100.00;97019.84;5008004;28;104813;-62
2023/05/03 00:17:55;;;;;;;7.60;7.00;;;;;;;9.44;100.00;97018.78;5004378;28;105242;-62
2023/05/03 00:20:22;;;;;;;7.67;6.93;;;;;;;9.48;100.00;97012.00;5006976;28;102383;-62
2023/05/03 00:22:49;;;;;;;8.23;7.43;;;;;;;9.49;100.00;97016.25;4993634;28;105211;-62
2023/05/03 00:25:20;;;;;;;7.57;6.93;;;;;;;9.49;100.00;97008.31;5009864;28;105129;-62
2023/05/03 00:27:48;;;;;;;7.23;6.53;;;;;;;9.47;100.00;97003.22;5004571;28;102355;-62
2023/05/03 00:30:17;;;;;;;7.70;7.10;;;;;;;9.48;100.00;97004.03;4992590;28;106366;-62
2023/05/03 00:32:44;;;;;;;8.73;7.97;;;;;;;9.43;100.00;97003.91;4999878;28;101969;-62
2023/05/03 00:35:18;;;;;;;8.27;7.57;;;;;;;9.39;100.00;97005.38;4999503;28;102948;-62
2023/05/03 00:37:45;;;;;;;8.53;7.67;;;;;;;9.39;100.00;97000.06;5002967;28;102542;-62
2023/05/03 00:40:15;;;;;;;8.20;7.50;;;;;;;9.41;100.00;97003.31;5015484;28;101825;-62
2023/05/03 00:42:42;;;;;;;8.93;8.13;;;;;;;9.43;100.00;97001.25;5010515;28;102807;-62
2023/05/03 00:45:38;;;;;;;10.00;9.10;;;;;;;9.45;100.00;96999.16;4999881;28;105620;-62
2023/05/03 00:48:05;;;;;;;9.07;8.27;;;;;;;9.39;100.00;96995.56;5008053;28;102354;-62
2023/05/03 00:50:32;;;;;;;8.60;7.80;;;;;;;9.38;100.00;97003.78;5008266;28;105903;-62
2023/05/03 00:53:00;;;;;;;8.43;7.63;;;;;;;9.37;100.00;97000.31;4995887;28;102179;-62
2023/05/03 00:55:30;;;;;;;7.97;7.27;;;;;;;9.32;100.00;96999.38;5008249;28;105261;-62
2023/05/03 00:57:58;;;;;;;8.20;7.50;;;;;;;9.31;100.00;97003.88;5005183;28;105877;-63
2023/05/03 01:00:25;;;;;;;8.50;7.70;;;;;;;9.34;100.00;97005.25;5006765;28;102183;-62
2023/05/03 01:02:54;;;;;;;8.07;7.37;;;;;;;9.35;100.00;97004.22;4999728;28;105250;-62
2023/05/03 01:05:23;;;;;;;8.20;7.50;;;;;;;9.33;100.00;97011.59;4997847;28;102689;-62
2023/05/03 01:08:01;;;;;;;7.90;7.20;;;;;;;9.37;100.00;97008.25;4998875;28;101965;-62
2023/05/03 01:10:38;;;;;;;8.30;7.60;;;;;;;9.47;100.00;97007.69;5008015;28;102870;-62
2023/05/03 01:13:25;;;;;;;8.43;7.73;;;;;;;9.51;100.00;97011.53;4990892;28;101843;-62
2023/05/03 01:15:59;;;;;;;8.40;7.70;;;;;;;9.56;100.00;97011.66;5005225;28;103534;-62
2023/05/03 01:18:31;;;;;;;8.40;7.70;;;;;;;9.56;100.00;97007.16;4992595;28;105404;-62
2023/05/03 01:21:00;;;;;;;8.47;7.57;;;;;;;9.54;100.00;97008.44;5001764;28;101881;-62
2023/05/03 01:23:40;;;;;;;8.37;7.67;;;;;;;9.51;100.00;97006.22;5001593;28;105363;-62
2023/05/03 01:26:20;;;;;;;8.47;7.77;;;;;;;9.47;100.00;97013.00;5008734;28;105635;-62
2023/05/03 01:28:48;;;;;;;9.07;8.27;;;;;;;9.47;100.00;97013.00;5008205;28;101846;-62
2023/05/03 01:31:21;;;;;;;10.50;9.50;;;;;;;9.43;100.00;97011.88;5000593;28;104852;-62
2023/05/03 01:33:57;;;;;;;11.47;10.47;;;;;;;9.23;100.00;97020.13;5008345;28;105330;-62
2023/05/03 01:36:31;;;;;;;11.00;10.03;;;;;;;9.25;100.00;97014.56;5032079;27;105402;-62
2023/05/03 01:38:59;;;;;;;10.90;9.77;;;;;;;9.32;100.00;97005.47;5003217;28;102539;-62
2023/05/03 01:41:28;;;;;;;10.80;9.87;;;;;;;9.38;100.00;97004.56;5000178;28;102158;-62
2023/05/03 01:43:57;;;;;;;10.77;9.87;;;;;;;9.13;100.00;97011.09;5012658;28;102098;-62
2023/05/03 01:46:24;;;;;;;11.10;10.10;;;;;;;9.09;100.00;97009.91;4997995;28;105313;-62
2023/05/03 01:48:51;;;;;;;29.67;11.20;;;;;;;8.90;100.00;97011.00;5003892;28;101877;-62
2023/05/03 01:51:18;;;;;;;73.33;12.00;;;;;;;8.81;100.00;97014.97;4990360;28;102949;-62
2023/05/03 01:53:51;;;;;;;11.00;10.00;;;;;;;8.82;100.00;97020.06;5001993;28;102514;-62
2023/05/03 01:56:19;;;;;;;10.60;9.70;;;;;;;8.91;100.00;97012.63;5027915;27;102160;-62
2023/05/03 01:58:47;;;;;;;12.03;10.97;;;;;;;8.97;100.00;97019.66;5008682;28;105492;-62
2023/05/03 02:01:14;;;;;;;11.00;10.10;;;;;;;9.00;100.00;97022.69;5005238;28;101921;-63
2023/05/03 02:03:42;;;;;;;11.67;10.63;;;;;;;9.05;100.00;97014.06;4994914;28;104806;-62
2023/05/03 02:06:09;;;;;;;12.40;11.30;;;;;;;9.06;100.00;97016.47;4989949;28;104276;-62
2023/05/03 02:08:36;;;;;;;12.10;11.07;;;;;;;9.14;100.00;97020.66;4996074;28;101870;-62
2023/05/03 02:11:03;;;;;;;12.13;11.13;;;;;;;9.17;100.00;97017.56;4997217;28;105257;-62
2023/05/03 02:13:31;;;;;;;11.07;10.10;;;;;;;9.14;100.00;97021.47;5005995;28;104073;-62
2023/05/03 02:15:59;;;;;;;12.13;11.03;;;;;;;9.16;100.00;97016.75;5006430;28;103035;-62
2023/05/03 02:18:30;;;;;;;12.60;11.50;;;;;;;9.14;100.00;97021.47;4999106;28;106076;-62
2023/05/03 02:20:57;;;;;;;14.33;13.03;;;;;;;9.12;100.00;97018.25;4997060;28;102139;-62
2023/05/03 02:23:47;;;;;;;14.70;13.40;;;;;;;9.14;100.00;97025.97;4994799;28;105224;-62
2023/05/03 02:26:14;;;;;;;12.87;11.67;;;;;;;9.15;100.00;97023.09;5000212;28;105060;-62
2023/05/03 02:28:41;;;;;;;13.17;11.97;;;;;;;9.12;100.00;97025.38;5004723;28;102358;-62
2023/05/03 02:31:09;;;;;;;13.37;12.00;;;;;;;9.16;100.00;97022.03;5001875;28;105743;-62
2023/05/03 02:33:44;;;;;;;13.80;12.50;;;;;;;9.18;100.00;97024.47;5000605;28;105334;-62
2023/05/03 02:36:12;;;;;;;15.10;13.50;;;;;;;9.20;100.00;97025.06;5009329;28;101825;-63
2023/05/03 02:38:38;;;;;;;12.90;11.70;;;;;;;9.22;100.00;97030.97;5000701;28;105172;-62
2023/05/03 02:41:05;;;;;;;14.00;12.70;;;;;;;9.25;100.00;97025.19;5004670;28;101729;-62
2023/05/03 02:43:44;;;;;;;16.70;14.90;;;;;;;9.27;100.00;97023.94;5004731;28;104945;-62
2023/05/03 02:46:14;;;;;;;14.37;12.87;;;;;;;9.27;100.00;97023.13;5015492;28;105366;-63
2023/05/03 02:48:41;;;;;;;15.93;13.73;;;;;;;9.22;100.00;97023.00;5014600;28;101934;-62
2023/05/03 02:51:09;;;;;;;14.50;13.00;;;;;;;9.08;100.00;97025.03;5004392;28;105138;-62
2023/05/03 02:53:54;;;;;;;15.80;14.20;;;;;;;9.02;100.00;97022.47;4994737;28;105417;-62
2023/05/03 02:56:21;;;;;;;17.43;14.53;;;;;;;8.91;100.00;97018.75;4998504;28;102085;-62
2023/05/03 02:58:48;;;;;;;42.83;15.67;;;;;;;8.87;100.00;97022.88;4988038;28;104867;-62
2023/05/03 03:01:16;;;;;;;26.83;14.93;;;;;;;8.81;100.00;97025.59;5002470;28;105151;-63
2023/05/03 03:03:47;;;;;;;46.33;15.47;;;;;;;8.72;100.00;97021.66;4999292;28;105327;-62
2023/05/03 03:06:14;;;;;;;102.60;17.10;;;;;;;8.72;100.00;97024.31;4995410;28;105791;-62
2023/05/03 03:08:42;;;;;;;17.30;15.50;;;;;;;8.82;100.00;97019.25;5004360;28;102163;-62
2023/05/03 03:11:10;;;;;;;35.20;15.13;;;;;;;8.78;100.00;97018.09;5004403;28;104811;-62
2023/05/03 03:13:44;;;;;;;16.83;15.07;;;;;;;8.87;100.00;97016.75;5012786;28;105148;-62
2023/05/03 03:16:12;;;;;;;14.83;13.43;;;;;;;8.87;100.00;97017.56;4994562;28;101881;-63
2023/05/03 03:18:41;;;;;;;17.23;15.50;;;;;;;8.91;100.00;97013.44;5004075;28;105302;-63
2023/05/03 03:21:09;;;;;;;18.03;16.20;;;;;;;8.96;100.00;97018.88;5013426;28;105052;-62
2023/05/03 03:23:53;;;;;;;16.97;15.33;;;;;;;8.97;100.00;97027.63;4998692;28;102309;-62
2023/05/03 03:26:20;;;;;;;17.17;15.40;;;;;;;8.99;100.00;97026.38;4998090;28;105596;-62
2023/05/03 03:28:47;;;;;;;15.73;14.23;;;;;;;9.03;100.00;97026.72;5001114;28;101967;-62
2023/05/03 03:31:14;;;;;;;15.43;13.80;;;;;;;9.05;100.00;97024.69;4991501;28;103854;-62
2023/05/03 03:33:46;;;;;;;15.90;14.40;;;;;;;9.05;100.00;97029.97;4995610;28;103719;-62
2023/05/03 03:36:17;;;;;;;15.53;14.03;;;;;;;9.09;100.00;97028.47;4999633;28;101793;-62
2023/05/03 03:38:47;;;;;;;15.40;13.93;;;;;;;9.10;100.00;97024.81;4995882;28;105304;-62
2023/05/03 03:41:14;;;;;;;16.73;15.13;;;;;;;9.00;100.00;97021.88;4990316;28;105113;-62
2023/05/03 03:43:52;;;;;;;16.43;14.83;;;;;;;8.92;100.00;97017.69;4997854;28;101968;-62
2023/05/03 03:46:20;;;;;;;15.90;14.43;;;;;;;8.90;100.00;97016.31;5005358;28;104068;-63
2023/05/03 03:48:53;;;;;;;16.50;14.80;;;;;;;8.88;100.00;97015.72;5001761;28;102465;-62
2023/05/03 03:51:21;;;;;;;34.53;16.33;;;;;;;8.79;100.00;97025.03;5003567;28;104716;-62
2023/05/03 03:53:49;;;;;;;16.63;14.83;;;;;;;8.71;100.00;97023.47;4999898;28;105551;-62
2023/05/03 03:56:16;;;;;;;28.97;15.43;;;;;;;8.68;100.00;97028.41;4993658;28;101837;-62
2023/05/03 03:58:43;;;;;;;54.37;15.13;;;;;;;8.63;100.00;97036.22;4999679;28;105616;-62
2023/05/03 04:01:12;;;;;;;14.33;12.93;;;;;;;8.74;100.00;97030.19;5006067;28;105150;-62
2023/05/03 04:03:40;;;;;;;15.43;14.03;;;;;;;8.79;100.00;97035.63;5005373;28;101950;-62
2023/05/03 04:06:09;;;;;;;18.50;13.00;;;;;;;8.79;100.00;97040.94;5006350;28;105013;-62
2023/05/03 04:08:36;;;;;;;61.30;17.17;;;;;;;8.76;100.00;97044.00;5006860;27;101908;-62
2023/05/03 04:11:04;;;;;;;41.80;17.53;;;;;;;8.70;100.00;97052.84;5005264;28;103923;-62
2023/05/03 04:13:35;;;;;;;35.07;16.77;;;;;;;8.66;100.00;97051.69;4995850;28;104864;-62
2023/05/03 04:16:02;;;;;;;16.63;15.03;;;;;;;8.66;100.00;97054.31;4994833;28;101926;-62
2023/05/03 04:18:29;;;;;;;17.90;16.10;;;;;;;8.70;100.00;97048.38;4992113;28;104122;-62
2023/05/03 04:20:58;;;;;;;19.13;16.00;;;;;;;8.74;100.00;97052.22;5013384;28;104177;-62
2023/05/03 04:26:51;;;;;;;21.17;18.00;;;;;;;8.80;100.00;97047.84;5003547;28;105553;-62
2023/05/03 04:29:25;;;;;;;19.63;17.53;;;;;;;8.84;100.00;97052.47;5003906;28;104915;-62
2023/05/03 04:31:53;;;;;;;19.30;17.30;;;;;;;8.90;100.00;97048.94;5006577;28;105464;-62
2023/05/03 04:34:33;;;;;;;22.90;18.63;;;;;;;8.92;100.00;97049.53;5011771;28;105818;-62
2023/05/03 04:37:04;;;;;;;19.90;17.67;;;;;;;8.97;100.00;97051.50;5006369;28;101780;-62
2023/05/03 04:39:32;;;;;;;21.13;18.80;;;;;;;9.05;100.00;97044.03;5005843;28;104880;-62
2023/05/03 04:42:00;;;;;;;20.53;18.33;;;;;;;9.17;100.00;97055.50;5011406;28;105386;-62
2023/05/03 04:44:28;;;;;;;20.83;18.63;;;;;;;9.25;100.00;97047.25;5005308;28;101869;-62
2023/05/03 04:46:55;;;;;;;22.20;19.77;;;;;;;9.23;100.00;97051.16;4997927;28;104513;-62
2023/05/03 04:49:22;;;;;;;22.60;19.27;;;;;;;9.34;100.00;97050.38;5008639;28;105026;-62
2023/05/03 04:51:49;;;;;;;25.07;19.17;;;;;;;9.40;100.00;97054.78;5017920;28;101757;-62
2023/05/03 04:54:19;;;;;;;24.40;20.17;;;;;;;9.48;100.00;97055.25;5004495;28;105493;-62
2023/05/03 04:56:46;;;;;;;20.40;18.23;;;;;;;9.52;100.00;97053.78;5004292;28;101995;-62
2023/05/03 04:59:20;;;;;;;20.13;17.93;;;;;;;9.53;100.00;97052.75;4989761;28;104914;-62
2023/05/03 05:01:47;;;;;;;18.70;16.77;;;;;;;9.55;100.00;97063.94;5017674;27;105648;-62
2023/05/03 05:04:29;;;;;;;20.33;18.13;;;;;;;9.60;100.00;97055.31;5009492;28;103045;-62
2023/05/03 05:06:56;;;;;;;20.70;18.50;;;;;;;9.57;100.00;97056.56;4999709;28;105284;-62
2023/05/03 05:09:29;;;;;;;21.57;19.37;;;;;;;9.63;100.00;97055.66;5001674;28;105432;-62
2023/05/03 05:11:59;;;;;;;26.43;19.63;;;;;;;9.66;100.00;97054.41;4992029;28;102056;-62
2023/05/03 05:14:40;;;;;;;22.80;20.40;;;;;;;9.66;100.00;97057.84;4996242;28;104771;-62
2023/05/03 05:17:08;;;;;;;21.53;19.23;;;;;;;9.67;100.00;97062.13;4992273;28;102138;-62
2023/05/03 05:19:36;;;;;;;23.97;20.37;;;;;;;9.71;100.00;97059.84;4997990;28;105193;-62
2023/05/03 05:22:03;;;;;;;22.67;20.27;;;;;;;9.64;100.00;97057.28;5003146;28;105169;-63
2023/05/03 05:25:27;;;;;;;22.23;20.00;;;;;;;9.56;100.00;97060.25;4996391;28;102138;-62
2023/05/03 05:27:55;;;;;;;24.87;19.53;;;;;;;9.50;100.00;97063.00;5007222;28;102327;-62
2023/05/03 05:30:25;;;;;;;21.63;19.33;;;;;;;9.40;100.00;97065.41;4992909;28;105133;-62
2023/05/03 05:32:52;;;;;;;36.50;19.53;;;;;;;9.46;100.00;97062.66;4998672;28;103009;-63
2023/05/03 05:35:28;;;;;;;22.13;18.70;;;;;;;9.43;100.00;97071.06;5008807;28;103473;-62
2023/05/03 05:37:55;;;;;;;21.47;19.27;;;;;;;9.47;100.00;97071.41;5003449;28;104767;-62
2023/05/03 05:40:22;;;;;;;21.93;19.63;;;;;;;9.56;100.00;97078.84;5000683;28;105503;-63
2023/05/03 05:42:55;;;;;;;24.67;20.30;;;;;;;9.58;100.00;97073.28;4994935;28;105955;-62
2023/05/03 05:45:25;;;;;;;22.40;19.63;;;;;;;9.63;100.00;97082.22;5005547;28;101896;-62
2023/05/03 05:47:53;;;;;;;24.20;21.07;;;;;;;9.58;100.00;97075.94;4988970;28;105340;-62
2023/05/03 05:50:20;;;;;;;23.53;21.00;;;;;;;9.56;100.00;97081.50;4996399;28;104358;-62
2023/05/03 05:52:54;;;;;;;26.33;22.70;;;;;;;9.42;100.00;97084.56;5001344;28;101880;-62
2023/05/03 05:55:38;;;;;;;24.43;21.80;;;;;;;9.39;100.00;97085.03;5013315;28;104906;-62
2023/05/03 05:58:06;;;;;;;26.57;23.30;;;;;;;9.35;100.00;97089.16;4936841;28;105725;-62
2023/05/03 06:00:41;;;;;;;35.00;23.43;;;;;;;9.26;100.00;97093.97;4916580;28;101969;-62
2023/05/03 06:03:13;;;;;;;26.70;23.50;;;;;;;9.27;100.00;97092.13;4928236;28;105383;-62
2023/05/03 06:05:40;;;;;;;30.47;23.80;;;;;;;9.40;100.00;97098.06;4926924;28;102514;-62
2023/05/03 06:08:10;;;;;;;27.20;23.30;;;;;;;9.40;100.00;97095.41;4920430;28;105398;-62
2023/05/03 06:10:38;;;;;;;21.87;19.53;;;;;;;9.44;100.00;97095.78;4923785;28;103909;-61
2023/05/03 06:13:05;;;;;;;19.97;17.87;;;;;;;9.54;100.00;97096.84;4925469;28;102174;-62
2023/05/03 06:15:34;;;;;;;17.93;16.07;;;;;;;9.51;100.00;97099.13;4928834;28;105066;-62
2023/05/03 06:18:03;;;;;;;15.77;14.23;;;;;;;9.61;100.00;97099.41;4911976;28;105243;-62
2023/05/03 06:20:30;;;;;;;15.50;13.93;;;;;;;9.72;100.00;97090.66;4915731;28;102042;-62
2023/05/03 06:22:58;;;;;;;13.17;11.87;;;;;;;9.78;100.00;97093.22;4927911;28;105651;-63
2023/05/03 06:25:26;;;;;;;12.47;11.37;;;;;;;9.88;100.00;97090.00;4917735;28;102083;-63
2023/05/03 06:27:53;;;;;;;13.27;12.00;;;;;;;10.02;100.00;97086.91;4921703;28;104906;-62
2023/05/03 06:30:24;;;;;;;14.73;13.33;;;;;;;10.03;100.00;97085.84;4923354;28;105216;-63
2023/05/03 06:32:51;;;;;;;14.77;13.27;;;;;;;10.19;100.00;97081.75;4924558;28;102268;-62
2023/05/03 06:35:40;;;;;;;14.93;13.43;;;;;;;10.34;100.00;97090.06;4958204;28;104907;-62
2023/05/03 06:38:08;;;;;;;14.47;13.07;;;;;;;10.32;100.00;97089.47;4999588;28;105145;-62
2023/05/03 06:40:36;;;;;;;14.77;13.47;;;;;;;10.40;100.00;97083.81;4998733;28;102061;-62
2023/05/03 06:43:04;;;;;;;13.93;12.63;;;;;;;10.48;100.00;97084.25;5010755;28;104793;-62
2023/05/03 06:45:37;;;;;;;14.20;12.80;;;;;;;10.48;100.00;97080.81;5005225;28;103046;-62
2023/05/03 06:48:05;;;;;;;13.83;12.43;;;;;;;10.51;100.00;97083.81;4988292;28;104108;-62
2023/05/03 06:50:34;;;;;;;14.90;13.50;;;;;;;10.59;100.00;97087.97;4990442;28;105382;-62
2023/05/03 06:53:03;;;;;;;14.57;12.97;;;;;;;10.60;100.00;97093.06;4999768;28;101865;-62
2023/05/03 06:55:31;;;;;;;13.37;12.07;;;;;;;10.68;100.00;97083.91;4993085;28;103944;-62
2023/05/03 06:57:58;;;;;;;12.90;11.60;;;;;;;10.60;100.00;97082.41;5006999;28;104830;-63
2023/05/03 07:00:25;;;;;;;12.67;11.47;;;;;;;10.70;100.00;97089.81;5000830;28;102276;-62
2023/05/03 07:02:52;;;;;;;13.07;11.87;;;;;;;10.83;100.00;97081.56;4998501;28;105369;-62
2023/05/03 07:05:21;;;;;;;11.90;10.40;;;;;;;10.69;100.00;97088.19;4999530;28;105571;-62
2023/05/03 07:07:48;;;;;;;12.63;11.37;;;;;;;10.57;100.00;97084.75;4995605;28;105544;-73
2023/05/03 07:10:16;;;;;;;13.43;12.13;;;;;;;10.56;100.00;97091.06;4988635;28;102637;-62
2023/05/03 07:12:43;;;;;;;15.37;13.87;;;;;;;10.65;100.00;97081.72;4989413;28;101920;-62
2023/05/03 07:15:16;;;;;;;17.53;15.73;;;;;;;10.56;100.00;97080.44;5003165;28;105307;-62
2023/05/03 07:17:43;;;;;;;17.93;16.13;;;;;;;10.54;100.00;97086.00;5001636;28;105291;-62
2023/05/03 07:20:11;;;;;;;16.50;14.90;;;;;;;10.89;100.00;97083.28;4990552;28;101958;-63
2023/05/03 07:22:38;;;;;;;18.17;16.40;;;;;;;11.04;100.00;97081.75;5003638;28;103010;-62
2023/05/03 07:25:07;;;;;;;19.63;17.63;;;;;;;11.27;100.00;97079.00;4997405;28;105994;-62
2023/05/03 07:27:35;;;;;;;18.37;16.53;;;;;;;11.32;100.00;97080.94;4990829;28;101780;-62
2023/05/03 07:30:03;;;;;;;18.37;16.47;;;;;;;11.36;100.00;97079.41;5004342;28;104282;-62
2023/05/03 07:32:30;;;;;;;19.00;17.00;;;;;;;11.44;100.00;97087.03;4989126;28;101878;-62
2023/05/03 07:35:38;;;;;;;18.27;16.40;;;;;;;11.62;100.00;97074.34;5011301;28;104960;-62
2023/05/03 07:38:05;;;;;;;16.90;15.30;;;;;;;11.96;100.00;97080.50;5008141;28;105308;-61
2023/05/03 07:40:32;;;;;;;17.00;15.27;;;;;;;11.90;100.00;97076.16;5006105;28;102235;-62
2023/05/03 07:43:00;;;;;;;16.47;15.00;;;;;;;11.80;100.00;97073.31;5002293;28;104984;-62
2023/05/03 07:45:27;;;;;;;16.03;14.53;;;;;;;11.80;100.00;97075.97;5003255;28;106062;-62
2023/05/03 07:47:56;;;;;;;16.60;14.93;;;;;;;11.58;100.00;97083.03;5010116;28;102522;-62
2023/05/03 07:50:23;;;;;;;15.77;14.33;;;;;;;11.53;100.00;97081.09;5002567;28;105650;-62
2023/05/03 07:52:50;;;;;;;15.33;13.87;;;;;;;11.49;100.00;97077.28;5010435;28;101858;-62
2023/05/03 07:55:25;;;;;;;15.90;14.40;;;;;;;11.73;100.00;97078.78;5011353;28;105019;-62
2023/05/03 07:57:57;;;;;;;15.63;14.23;;;;;;;11.97;100.00;97071.47;5005851;28;102716;-67
2023/05/03 08:00:26;;;;;;;15.50;14.10;;;;;;;12.10;100.00;97076.50;4992249;28;102136;-63
2023/05/03 08:02:53;;;;;;;14.77;13.30;;;;;;;12.24;100.00;97081.25;4992334;28;105021;-62
2023/05/03 08:05:51;;;;;;;16.30;14.70;;;;;;;12.03;100.00;97075.81;4994125;28;105677;-62
2023/05/03 08:08:18;;;;;;;14.40;12.90;;;;;;;12.20;100.00;97084.63;4999786;28;101830;-63
2023/05/03 08:10:45;;;;;;;12.60;11.50;;;;;;;12.14;100.00;97077.59;5011449;28;102850;-63
2023/05/03 08:13:29;;;;;;;10.43;9.43;;;;;;;11.77;100.00;97082.59;5013378;28;105503;-63
2023/05/03 08:15:58;;;;;;;10.60;9.70;;;;;;;11.55;100.00;97084.31;5002361;28;104834;-62
2023/05/03 08:18:25;;;;;;;10.70;9.70;;;;;;;11.66;100.00;97077.34;4991100;28;105915;-62
2023/05/03 08:20:51;;;;;;;10.40;9.50;;;;;;;11.82;100.00;97081.91;4991399;28;102014;-61
2023/05/03 08:23:20;;;;;;;11.23;10.13;;;;;;;12.07;100.00;97079.63;5000789;28;104793;-61
2023/05/03 08:25:47;;;;;;;12.03;10.93;;;;;;;12.27;100.00;97078.06;5002863;28;102821;-61
2023/05/03 08:28:15;;;;;;;11.90;10.80;;;;;;;12.77;100.00;97072.66;4993538;28;102027;-62
2023/05/03 08:30:42;;;;;;;12.37;11.17;;;;;;;13.19;100.00;97065.75;4995364;28;105139;-61
2023/05/03 08:33:23;;;;;;;11.63;10.53;;;;;;;13.31;100.00;97063.72;5012607;28;105455;-60
2023/05/03 08:35:50;;;;;;;12.37;11.13;;;;;;;13.49;100.00;97063.38;4999722;28;104939;-62
2023/05/03 08:38:18;;;;;;;11.13;10.23;;;;;;;13.96;100.00;97062.47;4994500;28;105804;-61
2023/05/03 08:40:51;;;;;;;11.40;9.73;;;;;;;14.32;100.00;97061.72;4993572;28;102057;-61
2023/05/03 08:43:21;;;;;;;10.50;9.50;;;;;;;14.32;100.00;97063.59;5019785;28;104846;-61
2023/05/03 08:45:48;;;;;;;10.03;9.13;;;;;;;14.87;100.00;97054.00;5013689;28;104996;-61
2023/05/03 08:48:15;;;;;;;10.80;8.80;;;;;;;15.09;100.00;97048.50;5009151;28;103134;-61
2023/05/03 08:50:44;;;;;;;9.20;8.40;;;;;;;15.36;100.00;97049.94;5004296;28;105731;-60
2023/05/03 08:53:16;;;;;;;9.77;8.83;;;;;;;15.43;100.00;97052.38;5009683;28;105409;-60
2023/05/03 08:55:43;;;;;;;8.20;7.50;;;;;;;15.57;100.00;97040.88;5005404;28;103078;-60
2023/05/03 08:58:11;;;;;;;8.40;7.60;;;;;;;15.77;100.00;97043.59;5006769;28;105179;-61
2023/05/03 09:00:40;;;;;;;7.67;6.97;;;;;;;15.88;100.00;97039.03;5011406;28;102035;-60
2023/05/03 09:03:17;;;;;;;8.10;7.40;;;;;;;16.01;100.00;97038.47;5003447;28;102563;-61
2023/05/03 09:05:45;;;;;;;7.97;7.13;;;;;;;16.22;100.00;97035.53;5009473;28;105008;-61
2023/05/03 09:08:13;;;;;;;7.57;6.77;;;;;;;16.54;100.00;97035.25;5013887;28;101994;-61
2023/05/03 09:10:41;;;;;;;6.77;6.27;;;;;;;16.98;100.00;97041.56;4996864;28;103966;-60
2023/05/03 09:13:19;;;;;;;6.73;6.13;;;;;;;17.34;100.00;97032.28;5009285;28;106002;-61
2023/05/03 09:15:53;;;;;;;6.43;5.93;;;;;;;16.67;100.00;97032.78;5010189;28;102020;-61
2023/05/03 09:18:22;;;;;;;6.07;5.57;;;;;;;17.33;100.00;97031.44;5006424;28;105393;-61
2023/05/03 09:20:51;;;;;;;6.80;6.20;;;;;;;17.75;100.00;97034.47;5015440;28;102065;-61
2023/05/03 09:23:19;;;;;;;5.83;5.33;;;;;;;17.37;100.00;97023.63;5009947;28;104765;-62
2023/05/03 09:25:48;;;;;;;5.77;5.20;;;;;;;18.01;100.00;97025.13;5005058;28;104088;-62
2023/05/03 09:28:16;;;;;;;5.73;5.20;;;;;;;18.16;100.00;97035.72;5004058;28;102063;-61
2023/05/03 09:30:43;;;;;;;5.90;5.40;;;;;;;17.41;100.00;97019.34;5001111;28;105005;-61
2023/05/03 09:33:29;;;;;;;5.73;5.23;;;;;;;17.78;100.00;97022.34;5001728;28;105393;-61
2023/05/03 09:35:59;;;;;;;5.60;5.10;;;;;;;18.24;100.00;97026.25;5000721;28;102323;-60
2023/05/03 09:38:27;;;;;;;5.33;4.83;;;;;;;18.65;100.00;97019.41;5004059;28;102830;-61
2023/05/03 09:40:54;;;;;;;5.63;5.13;;;;;;;18.45;100.00;97003.47;5013828;28;103204;-60
2023/05/03 09:43:22;;;;;;;5.10;4.70;;;;;;;18.55;100.00;97008.75;5009149;28;102309;-60
2023/05/03 09:45:49;;;;;;;5.67;4.80;;;;;;;18.50;100.00;97003.41;4990921;28;102784;-60
2023/05/03 09:48:17;;;;;;;4.90;4.50;;;;;;;18.63;100.00;97002.75;4999603;28;102005;-60
2023/05/03 09:50:45;;;;;;;4.80;4.33;;;;;;;18.46;100.00;97000.50;5000775;28;105679;-60
2023/05/03 09:53:34;;;;;;;3.60;3.30;;;;;;;18.78;100.00;97002.56;5006145;28;105739;-61
2023/05/03 09:56:03;;;;;;;3.67;3.47;;;;;;;19.19;100.00;96995.59;5001008;28;102019;-60
2023/05/03 09:58:30;;;;;;;4.33;3.93;;;;;;;19.32;100.00;96993.00;5012191;28;103211;-61
2023/05/03 10:00:57;;;;;;;6.40;5.80;;;;;;;18.91;100.00;96999.97;4991847;28;106060;-61
2023/05/03 10:03:35;;;;;;;4.10;3.80;;;;;;;18.81;100.00;96991.22;5008443;28;102129;-61
2023/05/03 10:06:05;;;;;;;4.77;4.27;;;;;;;18.59;100.00;96993.63;4993986;28;104322;-59
2023/05/03 10:08:37;;;;;;;4.10;3.80;;;;;;;19.03;100.00;96997.66;5006804;28;101869;-59
2023/05/03 10:11:08;;;;;;;6.37;4.43;;;;;;;19.77;100.00;96991.53;5005558;28;105658;-59
2023/05/03 10:13:38;;;;;;;4.63;4.30;;;;;;;19.98;100.00;96992.81;5005909;28;107788;-60
2023/05/03 10:16:08;;;;;;;4.67;4.10;;;;;;;19.97;100.00;96989.31;4989564;28;101911;-60
2023/05/03 10:18:43;;;;;;;12.17;4.70;;;;;;;20.01;100.00;96993.03;5004633;28;105400;-60
2023/05/03 10:21:16;;;;;;;4.73;4.33;;;;;;;20.20;100.00;96985.72;5003092;28;105414;-60
2023/05/03 10:24:21;;;;;;;4.40;4.10;;;;;;;20.37;99.45;96974.34;5004809;28;101895;-59
2023/05/03 10:26:51;;;;;;;4.27;3.97;;;;;;;20.65;88.33;96981.41;5001382;28;105089;-59
2023/05/03 10:29:47;;;;;;;4.00;3.70;;;;;;;20.44;90.10;96977.47;4996988;28;102155;-59
2023/05/03 10:32:39;;;;;;;29.13;6.30;;;;;;;21.25;98.25;96977.50;5001654;28;102734;-60
2023/05/03 10:35:09;;;;;;;5.70;4.50;;;;;;;20.75;100.00;96973.88;5009427;28;102253;-60
2023/05/03 10:37:36;;;;;;;4.83;4.43;;;;;;;20.76;95.33;96972.78;4998280;28;102154;-61
2023/05/03 10:40:11;;;;;;;17.50;4.83;;;;;;;20.03;100.00;96969.25;5006328;28;102830;-61
2023/05/03 10:42:38;;;;;;;4.60;4.20;;;;;;;19.87;100.00;96969.78;4998788;28;102622;-62
2023/05/03 10:45:08;;;;;;;4.27;3.87;;;;;;;19.04;100.00;96971.53;4996345;28;102283;-61
2023/05/03 10:47:36;;;;;;;4.40;4.00;;;;;;;18.98;100.00;96976.19;5004259;28;103204;-61
2023/05/03 10:50:25;;;;;;;4.97;4.57;;;;;;;18.44;100.00;96980.31;5006152;28;102179;-61
2023/05/03 10:52:52;;;;;;;4.37;4.00;;;;;;;19.30;100.00;96975.53;4988990;28;103773;-61
2023/05/03 10:55:28;;;;;;;4.57;4.27;;;;;;;19.21;100.00;96969.97;4994028;28;102749;-61
2023/05/03 10:57:57;;;;;;;4.00;3.67;;;;;;;19.04;91.43;96974.22;5000182;28;102171;-61
2023/05/03 11:00:31;;;;;;;3.27;3.07;;;;;;;19.46;95.23;96966.91;5001261;28;102547;-61
2023/05/03 11:03:25;;;;;;;3.40;3.20;;;;;;;19.61;93.90;96963.97;5009379;28;102557;-61
2023/05/03 11:05:52;;;;;;;3.53;3.27;;;;;;;19.71;99.77;96963.84;5010098;28;101967;-61
2023/05/03 11:08:21;;;;;;;3.93;3.60;;;;;;;19.44;97.63;96961.00;5000963;28;101664;-61
2023/05/03 11:10:50;;;;;;;3.57;3.27;;;;;;;19.49;88.76;96962.81;5001382;28;103172;-60
2023/05/03 11:13:36;;;;;;;4.13;2.87;;;;;;;19.97;72.44;96958.81;5008347;28;102522;-61
2023/05/03 11:16:04;;;;;;;3.23;3.03;;;;;;;20.24;77.94;96959.72;5002466;28;102749;-59
2023/05/03 11:18:32;;;;;;;3.80;3.50;;;;;;;20.35;85.85;96952.22;5009757;28;101965;-60
2023/05/03 11:20:59;;;;;;;3.23;3.03;;;;;;;20.20;84.98;96952.50;5002897;28;104050;-59
2023/05/03 11:23:31;;;;;;;3.57;3.37;;;;;;;20.26;98.28;96951.31;5008926;28;103216;-59
2023/05/03 11:26:00;;;;;;;4.07;3.77;;;;;;;20.08;99.23;96949.47;5014862;28;101992;-59
2023/05/03 11:28:27;;;;;;;3.83;3.50;;;;;;;19.98;100.00;96955.00;5007329;28;102465;-59
2023/05/03 11:30:54;;;;;;;3.70;3.40;;;;;;;20.43;92.89;96951.56;4987831;28;104033;-60